createdAt,value
2023-01-27T00:01:02.141Z,22.95
2023-01-27T00:03:30.566Z,22.98
2023-01-27T00:06:01.231Z,22.95
2023-01-27T00:08:29.595Z,22.83
2023-01-27T00:11:14.432Z,25.65
2023-01-27T00:13:42.271Z,26.20
2023-01-27T00:16:10.314Z,25.10
2023-01-27T00:18:38.215Z,26.17
2023-01-27T00:21:35.388Z,25.15
2023-01-27T00:24:21.100Z,26.73
2023-01-27T00:26:50.384Z,24.23
2023-01-27T00:29:18.247Z,28.90
2023-01-27T00:32:03.784Z,26.33
2023-01-27T00:34:31.651Z,27.85
2023-01-27T00:36:59.581Z,25.77
2023-01-27T00:39:27.446Z,27.48
2023-01-27T00:41:56.806Z,26.77
2023-01-27T00:44:24.695Z,26.15
2023-01-27T00:46:52.619Z,26.83
2023-01-27T00:49:20.535Z,26.35
2023-01-27T00:51:48.616Z,23.67
2023-01-27T00:54:16.450Z,25.52
2023-01-27T00:56:45.005Z,25.77
2023-01-27T00:59:14.220Z,25.50
2023-01-27T01:01:42.097Z,25.02
2023-01-27T01:04:09.982Z,26.92
2023-01-27T01:06:37.859Z,27.05
2023-01-27T01:09:05.742Z,28.25
2023-01-27T01:11:33.622Z,28.40
2023-01-27T01:14:01.516Z,30.55
2023-01-27T01:16:30.820Z,29.05
2023-01-27T01:18:59.582Z,29.42
2023-01-27T01:21:27.618Z,31.77
2023-01-27T01:23:55.559Z,28.88
2023-01-27T01:26:23.496Z,27.50
2023-01-27T01:28:51.400Z,29.55
2023-01-27T01:31:20.936Z,29.30
2023-01-27T01:33:50.239Z,30.20
2023-01-27T01:36:20.865Z,25.70
2023-01-27T01:38:49.422Z,25.17
2023-01-27T01:41:19.873Z,23.65
2023-01-27T01:43:48.017Z,26.95
2023-01-27T01:46:16.389Z,27.33
2023-01-27T01:48:48.005Z,27.08
2023-01-27T01:51:22.176Z,28.08
2023-01-27T01:53:54.524Z,31.90
2023-01-27T01:56:26.992Z,28.42
2023-01-27T01:58:56.571Z,30.48
2023-01-27T02:01:24.505Z,31.02
2023-01-27T02:03:57.289Z,30.17
2023-01-27T02:06:26.868Z,29.10
2023-01-27T02:08:55.802Z,29.83
2023-01-27T02:11:24.326Z,27.20
2023-01-27T02:13:53.211Z,28.30
2023-01-27T02:16:21.149Z,26.75
2023-01-27T02:18:49.209Z,27.58
2023-01-27T02:21:18.073Z,28.75
2023-01-27T02:23:56.444Z,28.13
2023-01-27T02:26:29.298Z,26.60
2023-01-27T02:28:58.863Z,27.75
2023-01-27T02:31:27.031Z,27.70
2023-01-27T02:33:59.118Z,27.80
2023-01-27T02:36:28.671Z,26.13
2023-01-27T02:38:59.009Z,26.55
2023-01-27T02:41:31.838Z,26.30
2023-01-27T02:44:00.005Z,28.45
2023-01-27T02:46:28.420Z,29.15
2023-01-27T02:48:56.503Z,28.83
2023-01-27T02:51:24.811Z,29.95
2023-01-27T02:53:52.859Z,24.17
2023-01-27T02:56:20.808Z,26.27
2023-01-27T02:58:50.222Z,25.02
2023-01-27T03:01:18.486Z,24.10
2023-01-27T03:03:47.541Z,27.88
2023-01-27T03:06:15.790Z,24.25
2023-01-27T03:08:44.028Z,24.42
2023-01-27T03:11:12.258Z,23.55
2023-01-27T03:13:40.576Z,25.80
2023-01-27T03:16:29.760Z,23.67
2023-01-27T03:18:57.611Z,24.45
2023-01-27T03:21:25.494Z,25.73
2023-01-27T03:23:53.382Z,23.92
2023-01-27T03:26:21.288Z,25.27
2023-01-27T03:29:09.126Z,23.45
2023-01-27T03:31:38.439Z,24.80
2023-01-27T03:34:06.408Z,25.00
2023-01-27T03:36:52.352Z,25.50
2023-01-27T03:39:37.601Z,22.23
2023-01-27T03:42:23.131Z,24.13
2023-01-27T03:45:08.693Z,22.15
2023-01-27T03:47:37.897Z,24.98
2023-01-27T03:50:11.201Z,22.65
2023-01-27T03:52:39.223Z,25.92
2023-01-27T03:55:09.532Z,23.27
2023-01-27T03:57:38.416Z,24.85
2023-01-27T04:00:07.202Z,23.83
2023-01-27T04:02:52.568Z,22.77
2023-01-27T04:05:39.191Z,24.55
2023-01-27T04:08:07.438Z,25.67
2023-01-27T04:10:35.307Z,24.38
2023-01-27T04:13:02.165Z,25.48
2023-01-27T04:15:30.075Z,22.90
2023-01-27T04:17:57.930Z,22.85
2023-01-27T04:20:27.147Z,23.10
2023-01-27T04:22:56.063Z,22.13
2023-01-27T04:25:23.966Z,21.23
2023-01-27T04:27:51.823Z,22.88
2023-01-27T04:30:20.144Z,23.50
2023-01-27T04:32:48.256Z,21.13
2023-01-27T04:35:17.016Z,21.65
2023-01-27T04:37:46.220Z,22.20
2023-01-27T04:40:14.760Z,20.80
2023-01-27T04:42:42.604Z,22.27
2023-01-27T04:45:11.579Z,20.50
2023-01-27T04:47:39.656Z,21.48
2023-01-27T04:50:08.193Z,18.80
2023-01-27T04:52:36.056Z,20.48
2023-01-27T04:55:07.167Z,18.15
2023-01-27T04:57:35.033Z,19.05
2023-01-27T05:00:03.321Z,17.88
2023-01-27T05:02:31.188Z,17.58
2023-01-27T05:04:59.511Z,16.67
2023-01-27T05:07:27.399Z,17.60
2023-01-27T05:09:55.252Z,17.48
2023-01-27T05:12:24.483Z,16.67
2023-01-27T05:14:52.406Z,14.82
2023-01-27T05:17:20.272Z,15.05
2023-01-27T05:19:48.107Z,17.15
2023-01-27T05:22:15.975Z,17.60
2023-01-27T05:24:43.830Z,18.80
2023-01-27T05:27:11.668Z,19.42
2023-01-27T05:29:41.036Z,18.17
2023-01-27T05:32:08.895Z,18.67
2023-01-27T05:34:36.862Z,19.70
2023-01-27T05:37:04.716Z,18.55
2023-01-27T05:39:32.585Z,19.17
2023-01-27T05:42:00.840Z,19.95
2023-01-27T05:44:28.728Z,16.38
2023-01-27T05:46:57.945Z,17.20
2023-01-27T05:49:25.868Z,18.15
2023-01-27T05:51:53.739Z,16.88
2023-01-27T05:54:21.605Z,17.27
2023-01-27T05:56:49.504Z,17.15
2023-01-27T05:59:17.527Z,18.08
2023-01-27T06:01:45.500Z,20.40
2023-01-27T06:04:14.730Z,19.40
2023-01-27T06:06:42.617Z,19.95
2023-01-27T06:09:11.312Z,19.45
2023-01-27T06:11:39.191Z,20.75
2023-01-27T06:14:07.307Z,22.80
2023-01-27T06:16:35.236Z,22.70
2023-01-27T06:19:03.142Z,21.40
2023-01-27T06:21:32.415Z,23.20
2023-01-27T06:24:00.327Z,26.60
2023-01-27T06:26:28.318Z,28.20
2023-01-27T06:28:57.751Z,26.38
2023-01-27T06:31:27.398Z,28.00
2023-01-27T06:33:55.353Z,26.75
2023-01-27T06:36:23.883Z,28.30
2023-01-27T06:38:53.079Z,25.15
2023-01-27T06:41:20.995Z,25.85
2023-01-27T06:43:48.880Z,23.75
2023-01-27T06:46:16.886Z,24.55
2023-01-27T06:48:44.939Z,23.27
2023-01-27T06:51:13.095Z,24.88
2023-01-27T06:53:40.930Z,23.27
2023-01-27T06:56:10.331Z,24.85
2023-01-27T06:58:38.239Z,23.90
2023-01-27T07:01:07.320Z,25.25
2023-01-27T07:06:02.420Z,25.27
2023-01-27T07:08:30.308Z,25.35
2023-01-27T07:10:58.243Z,25.15
2023-01-27T07:13:27.413Z,25.60
2023-01-27T07:15:56.489Z,26.63
2023-01-27T07:18:24.632Z,27.92
2023-01-27T07:20:52.603Z,27.45
2023-01-27T07:23:20.477Z,25.83
2023-01-27T07:25:48.324Z,22.85
2023-01-27T07:28:16.167Z,24.52
2023-01-27T07:30:45.438Z,25.48
2023-01-27T07:33:15.277Z,25.00
2023-01-27T07:35:43.627Z,24.25
2023-01-27T07:38:11.798Z,24.65
2023-01-27T07:40:39.660Z,23.70
2023-01-27T07:43:07.535Z,26.08
2023-01-27T07:45:35.421Z,24.55
2023-01-27T07:48:06.386Z,22.70
2023-01-27T07:50:34.331Z,23.38
2023-01-27T07:53:03.529Z,22.95
2023-01-27T07:55:32.022Z,22.90
2023-01-27T07:58:00.127Z,23.60
2023-01-27T08:00:28.974Z,21.05
2023-01-27T08:02:58.091Z,19.98
2023-01-27T08:05:28.248Z,20.50
2023-01-27T08:07:58.725Z,18.95
2023-01-27T08:10:26.993Z,18.55
2023-01-27T08:12:54.916Z,18.55
2023-01-27T08:15:23.220Z,19.27
2023-01-27T08:17:55.330Z,20.20
2023-01-27T08:20:23.668Z,22.27
2023-01-27T08:22:53.021Z,21.15
2023-01-27T08:25:21.268Z,17.50
2023-01-27T08:27:51.535Z,19.67
2023-01-27T08:30:19.970Z,18.73
2023-01-27T08:32:48.424Z,19.48
2023-01-27T08:35:16.377Z,18.25
2023-01-27T08:37:44.260Z,17.90
2023-01-27T08:40:14.937Z,15.23
2023-01-27T08:42:42.962Z,15.90
2023-01-27T08:45:11.054Z,17.05
2023-01-27T08:47:38.875Z,15.60
2023-01-27T08:50:07.372Z,18.33
2023-01-27T08:52:35.250Z,15.95
2023-01-27T08:55:03.106Z,15.48
2023-01-27T08:57:34.232Z,16.65
2023-01-27T09:00:06.282Z,14.93
2023-01-27T09:02:34.294Z,13.00
2023-01-27T09:05:02.110Z,13.27
2023-01-27T09:07:30.014Z,12.48
2023-01-27T09:10:12.796Z,14.55
2023-01-27T09:12:44.369Z,15.13
2023-01-27T09:15:13.292Z,15.55
2023-01-27T09:17:41.378Z,16.17
2023-01-27T09:20:10.851Z,18.10
2023-01-27T09:22:40.177Z,16.38
2023-01-27T09:25:09.602Z,17.77
2023-01-27T09:27:39.869Z,18.73
2023-01-27T09:30:11.055Z,17.95
2023-01-27T09:32:39.258Z,19.25
2023-01-27T09:35:08.003Z,19.38
2023-01-27T09:37:39.958Z,18.92
2023-01-27T09:40:16.543Z,18.20
2023-01-27T09:43:00.579Z,17.90
2023-01-27T09:45:49.322Z,17.65
2023-01-27T09:48:38.849Z,17.75
2023-01-27T09:51:12.870Z,18.48
2023-01-27T09:54:11.171Z,18.48
2023-01-27T09:56:50.940Z,17.20
2023-01-27T09:59:34.901Z,18.27
2023-01-27T10:02:14.081Z,18.05
2023-01-27T10:05:21.467Z,17.13
2023-01-27T10:08:06.551Z,16.50
2023-01-27T10:10:49.707Z,16.60
2023-01-27T10:13:31.070Z,15.20
2023-01-27T10:16:19.439Z,14.88
2023-01-27T10:19:08.975Z,14.60
2023-01-27T10:21:46.253Z,15.40
2023-01-27T10:24:24.293Z,15.50
2023-01-27T10:26:55.729Z,15.88
2023-01-27T10:29:26.982Z,14.93
2023-01-27T10:31:58.406Z,16.73
2023-01-27T10:34:33.788Z,16.20
2023-01-27T10:37:16.976Z,17.10
2023-01-27T10:39:50.294Z,17.85
2023-01-27T10:42:29.092Z,15.95
2023-01-27T10:45:11.120Z,16.35
2023-01-27T10:47:55.138Z,16.45
2023-01-27T10:50:30.340Z,17.98
2023-01-27T10:53:02.980Z,19.23
2023-01-27T10:55:39.192Z,18.25
2023-01-27T10:58:13.627Z,17.60
2023-01-27T11:01:20.250Z,18.38
2023-01-27T11:03:38.118Z,18.00
2023-01-27T11:06:11.636Z,21.05
2023-01-27T11:08:42.727Z,20.02
2023-01-27T11:11:28.597Z,18.92
2023-01-27T11:14:04.455Z,21.25
2023-01-27T11:16:36.564Z,20.70
2023-01-27T11:19:15.155Z,20.55
2023-01-27T11:21:44.631Z,19.42
2023-01-27T11:24:22.432Z,22.25
2023-01-27T11:26:57.959Z,21.65
2023-01-27T11:29:34.702Z,20.85
2023-01-27T11:32:07.143Z,22.10
2023-01-27T11:34:41.727Z,18.40
2023-01-27T11:37:19.648Z,21.10
2023-01-27T11:42:16.154Z,20.30
2023-01-27T11:44:46.348Z,21.13
2023-01-27T11:47:24.015Z,18.73
2023-01-27T11:49:54.667Z,19.98
2023-01-27T11:52:27.098Z,19.80
2023-01-27T11:55:02.593Z,20.23
2023-01-27T11:57:30.686Z,19.33
2023-01-27T12:00:02.089Z,18.58
2023-01-27T12:02:36.094Z,18.98
2023-01-27T12:05:08.516Z,17.65
2023-01-27T12:07:47.152Z,18.15
2023-01-27T12:10:29.167Z,19.33
2023-01-27T12:12:58.152Z,18.08
2023-01-27T12:15:29.000Z,19.52
2023-01-27T12:17:59.756Z,17.38
2023-01-27T12:20:38.123Z,19.75
2023-01-27T12:23:18.794Z,16.98
2023-01-27T12:25:50.679Z,18.77
2023-01-27T12:28:25.360Z,18.35
2023-01-27T12:30:55.192Z,16.25
2023-01-27T12:33:28.169Z,18.45
2023-01-27T12:35:59.737Z,17.10
2023-01-27T12:38:35.275Z,15.65
2023-01-27T12:41:05.819Z,16.30
2023-01-27T12:43:50.339Z,16.23
2023-01-27T12:46:22.664Z,16.27
2023-01-27T12:48:52.559Z,17.15
2023-01-27T12:51:23.432Z,17.02
2023-01-27T12:54:17.178Z,18.80
2023-01-27T12:56:45.343Z,18.13
2023-01-27T12:59:15.535Z,16.60
2023-01-27T13:01:44.916Z,16.60
2023-01-27T13:04:16.990Z,18.02
2023-01-27T13:06:49.064Z,17.98
2023-01-27T13:09:27.685Z,18.23
2023-01-27T13:11:57.534Z,16.95
2023-01-27T13:14:29.028Z,16.98
2023-01-27T13:16:59.322Z,18.10
2023-01-27T13:19:35.886Z,16.40
2023-01-27T13:22:05.921Z,17.48
2023-01-27T13:24:42.143Z,15.70
2023-01-27T13:27:16.610Z,18.27
2023-01-27T13:29:53.598Z,16.27
2023-01-27T13:32:27.015Z,17.13
2023-01-27T13:35:04.645Z,16.60
2023-01-27T13:37:35.970Z,17.33
2023-01-27T13:40:13.657Z,15.50
2023-01-27T13:42:48.193Z,15.27
2023-01-27T13:45:19.378Z,16.77
2023-01-27T13:47:53.230Z,16.45
2023-01-27T13:50:31.125Z,16.17
2023-01-27T13:58:11.527Z,16.60
2023-01-27T14:00:47.580Z,16.95
2023-01-27T14:03:48.371Z,17.70
2023-01-27T14:06:27.826Z,18.52
2023-01-27T14:09:05.714Z,20.50
2023-01-27T14:14:25.431Z,21.33
2023-01-27T14:17:07.388Z,21.10
2023-01-27T14:19:45.937Z,23.42
2023-01-27T14:22:21.493Z,22.35
2023-01-27T14:24:56.351Z,23.88
2023-01-27T14:27:33.432Z,22.35
2023-01-27T14:30:08.983Z,23.47
2023-01-27T14:32:43.057Z,22.55
2023-01-27T14:35:32.269Z,23.85
2023-01-27T14:38:16.865Z,22.38
2023-01-27T14:40:57.608Z,21.88
2023-01-27T14:43:36.907Z,21.92
2023-01-27T14:46:18.881Z,22.70
2023-01-27T14:48:58.896Z,21.23
2023-01-27T14:51:35.948Z,22.63
2023-01-27T14:54:21.759Z,23.53
2023-01-27T14:57:06.084Z,22.67
2023-01-27T14:59:45.744Z,20.77
2023-01-27T15:02:24.471Z,23.10
2023-01-27T15:05:00.001Z,23.05
2023-01-27T15:07:37.284Z,22.00
2023-01-27T15:10:20.938Z,20.08
2023-01-27T15:13:12.835Z,20.15
2023-01-27T15:16:02.991Z,20.13
2023-01-27T15:18:55.236Z,21.33
2023-01-27T15:21:40.359Z,20.90
2023-01-27T15:24:40.513Z,20.48
2023-01-27T15:27:09.781Z,19.42
2023-01-27T15:29:38.858Z,19.85
2023-01-27T15:32:27.984Z,20.80
2023-01-27T15:35:36.093Z,21.17
2023-01-27T15:38:34.355Z,19.73
2023-01-27T15:41:13.342Z,19.33
2023-01-27T15:44:02.479Z,20.13
2023-01-27T15:46:33.347Z,21.25
2023-01-27T15:49:04.523Z,18.73
2023-01-27T15:51:37.102Z,21.02
2023-01-27T15:54:16.027Z,18.55
2023-01-27T15:56:47.688Z,19.92
2023-01-27T15:59:19.588Z,18.58
2023-01-27T16:01:49.996Z,19.23
2023-01-27T16:04:23.123Z,18.92
2023-01-27T16:06:54.038Z,19.70
2023-01-27T16:09:31.158Z,19.85
2023-01-27T16:12:01.773Z,18.33
2023-01-27T16:14:41.520Z,19.13
2023-01-27T16:17:24.867Z,17.73
2023-01-27T16:20:04.147Z,18.02
2023-01-27T16:22:36.341Z,18.45
2023-01-27T16:25:22.696Z,19.60
2023-01-27T16:27:58.257Z,20.08
2023-01-27T16:30:28.503Z,18.48
2023-01-27T16:33:06.154Z,19.17
2023-01-27T16:35:41.220Z,19.02
2023-01-27T16:38:20.257Z,18.13
2023-01-27T16:40:54.213Z,17.05
2023-01-27T16:43:24.994Z,19.45
2023-01-27T16:45:56.051Z,19.52
2023-01-27T16:48:33.309Z,18.40
2023-01-27T16:51:13.014Z,17.50
2023-01-27T16:53:45.042Z,19.90
2023-01-27T16:56:21.991Z,18.80
2023-01-27T16:58:51.204Z,15.43
2023-01-27T17:01:24.091Z,17.45
2023-01-27T17:03:55.828Z,17.15
2023-01-27T17:06:25.576Z,17.92
2023-01-27T17:08:53.389Z,18.95
2023-01-27T17:11:26.085Z,18.52
2023-01-27T17:14:00.092Z,16.42
2023-01-27T17:16:33.139Z,17.15
2023-01-27T17:19:06.149Z,17.55
2023-01-27T17:21:38.571Z,19.13
2023-01-27T17:24:16.923Z,18.48
2023-01-27T17:26:50.127Z,17.52
2023-01-27T17:29:20.437Z,17.70
2023-01-27T17:31:48.605Z,17.17
2023-01-27T17:34:19.673Z,17.65
2023-01-27T17:37:07.513Z,16.95
2023-01-27T17:39:38.512Z,17.23
2023-01-27T17:42:07.822Z,17.25
2023-01-27T17:44:36.515Z,17.65
2023-01-27T17:47:06.603Z,17.40
2023-01-27T17:49:34.606Z,16.40
2023-01-27T17:52:02.642Z,17.40
2023-01-27T17:54:33.336Z,17.60
2023-01-27T17:57:07.280Z,18.20
2023-01-27T17:59:38.883Z,16.80
2023-01-27T18:02:16.626Z,18.08
2023-01-27T18:04:44.881Z,17.40
2023-01-27T18:07:12.795Z,14.93
2023-01-27T18:09:46.056Z,17.33
2023-01-27T18:12:30.829Z,15.70
2023-01-27T18:15:00.424Z,17.17
2023-01-27T18:17:31.921Z,16.92
2023-01-27T18:19:59.868Z,16.45
2023-01-27T18:22:27.768Z,16.08
2023-01-27T18:24:57.607Z,17.75
2023-01-27T18:27:31.907Z,17.17
2023-01-27T18:30:04.404Z,16.42
2023-01-27T18:32:40.202Z,16.85
2023-01-27T18:35:26.484Z,16.90
2023-01-27T18:37:58.376Z,16.58
2023-01-27T18:40:30.159Z,16.58
2023-01-27T18:42:58.850Z,17.85
2023-01-27T18:45:29.035Z,16.17
2023-01-27T18:47:57.356Z,16.25
2023-01-27T18:50:26.365Z,15.23
2023-01-27T18:52:54.804Z,16.38
2023-01-27T18:55:24.367Z,14.25
2023-01-27T18:57:53.847Z,17.90
2023-01-27T19:00:23.667Z,16.35
2023-01-27T19:02:56.206Z,16.88
2023-01-27T19:05:26.488Z,16.17
2023-01-27T19:07:54.366Z,15.52
2023-01-27T19:10:24.941Z,15.23
2023-01-27T19:12:52.952Z,16.67
2023-01-27T19:15:23.756Z,16.27
2023-01-27T19:17:55.775Z,17.38
2023-01-27T19:20:25.420Z,17.52
2023-01-27T19:22:54.477Z,16.83
2023-01-27T19:25:24.258Z,15.88
2023-01-27T19:27:55.109Z,17.48
2023-01-27T19:30:29.680Z,15.32
2023-01-27T19:32:59.035Z,15.15
2023-01-27T19:35:29.602Z,16.90
2023-01-27T19:37:58.548Z,16.33
2023-01-27T19:40:27.988Z,16.38
2023-01-27T19:42:56.089Z,16.20
2023-01-27T19:45:24.612Z,17.45
2023-01-27T19:47:52.937Z,16.98
2023-01-27T19:50:25.219Z,15.90
2023-01-27T19:52:53.442Z,16.38
2023-01-27T19:55:22.369Z,14.75
2023-01-27T19:57:51.924Z,14.50
2023-01-27T20:00:24.101Z,15.82
2023-01-27T20:02:52.186Z,14.95
2023-01-27T20:05:20.086Z,16.90
2023-01-27T20:07:49.911Z,16.58
2023-01-27T20:10:19.895Z,17.20
2023-01-27T20:12:54.859Z,14.75
2023-01-27T20:15:24.321Z,16.55
2023-01-27T20:17:53.359Z,15.52
2023-01-27T20:20:22.101Z,15.38
2023-01-27T20:22:51.803Z,15.55
2023-01-27T20:25:21.843Z,14.73
2023-01-27T20:27:51.037Z,13.68
2023-01-27T20:30:20.426Z,15.77
2023-01-27T20:32:48.665Z,14.13
2023-01-27T20:35:19.010Z,14.93
2023-01-27T20:37:48.226Z,14.85
2023-01-27T20:40:19.291Z,15.00
2023-01-27T20:42:47.963Z,14.63
2023-01-27T20:45:16.503Z,15.60
2023-01-27T20:47:48.538Z,15.32
2023-01-27T20:50:16.428Z,14.07
2023-01-27T20:52:44.271Z,14.02
2023-01-27T20:55:16.070Z,14.30
2023-01-27T20:57:45.973Z,14.05
2023-01-27T21:00:18.265Z,16.05
2023-01-27T21:02:46.617Z,15.10
2023-01-27T21:05:15.585Z,14.30
2023-01-27T21:07:44.279Z,13.45
2023-01-27T21:10:12.925Z,14.23
2023-01-27T21:12:40.776Z,13.48
2023-01-27T21:15:11.827Z,13.93
2023-01-27T21:17:39.947Z,14.63
2023-01-27T21:20:08.979Z,14.52
2023-01-27T21:22:36.809Z,15.82
2023-01-27T21:25:04.913Z,16.65
2023-01-27T21:27:32.806Z,14.25
2023-01-27T21:30:00.638Z,14.68
2023-01-27T21:32:29.813Z,15.15
2023-01-27T21:34:58.524Z,12.60
2023-01-27T21:37:26.500Z,13.38
2023-01-27T21:39:54.334Z,13.10
2023-01-27T21:42:54.101Z,12.93
2023-01-27T21:45:22.183Z,13.52
2023-01-27T21:47:51.447Z,13.80
2023-01-27T21:50:19.543Z,13.82
2023-01-27T21:52:48.864Z,12.95
2023-01-27T21:55:19.909Z,13.45
2023-01-27T21:57:50.802Z,13.50
2023-01-27T22:00:21.349Z,13.60
2023-01-27T22:02:55.542Z,14.45
2023-01-27T22:05:24.020Z,13.52
2023-01-27T22:07:52.892Z,13.75
2023-01-27T22:10:23.432Z,13.50
2023-01-27T22:12:51.824Z,13.23
2023-01-27T22:15:20.823Z,14.27
2023-01-27T22:17:48.661Z,14.90
2023-01-27T22:20:18.926Z,12.82
2023-01-27T22:22:47.026Z,12.73
2023-01-27T22:25:16.749Z,12.75
2023-01-27T22:27:44.785Z,12.55
2023-01-27T22:30:15.198Z,12.88
2023-01-27T22:32:43.510Z,12.95
2023-01-27T22:35:12.275Z,12.48
2023-01-27T22:37:42.003Z,13.30
2023-01-27T22:40:11.319Z,13.00
2023-01-27T22:42:39.927Z,13.27
2023-01-27T22:45:09.947Z,13.02
2023-01-27T22:47:37.893Z,12.65
2023-01-27T22:50:06.349Z,12.27
2023-01-27T22:52:36.048Z,11.80
2023-01-27T22:55:05.810Z,13.07
2023-01-27T22:57:34.039Z,12.95
2023-01-27T23:00:02.009Z,12.23
2023-01-27T23:02:30.105Z,12.70
2023-01-27T23:04:58.637Z,11.80
2023-01-27T23:07:27.205Z,11.75
2023-01-27T23:09:55.036Z,11.88
2023-01-27T23:12:24.268Z,12.15
2023-01-27T23:14:52.150Z,11.27
2023-01-27T23:17:20.015Z,12.00
2023-01-27T23:19:47.845Z,12.32
2023-01-27T23:22:15.708Z,12.18
2023-01-27T23:24:43.512Z,12.15
2023-01-27T23:27:11.453Z,11.95
2023-01-27T23:29:40.618Z,12.20
2023-01-27T23:32:08.542Z,14.27
2023-01-27T23:34:36.344Z,11.25
2023-01-27T23:37:04.186Z,10.65
2023-01-27T23:39:32.062Z,11.82
2023-01-27T23:41:59.910Z,11.80
2023-01-27T23:44:27.744Z,11.57
2023-01-27T23:46:56.932Z,11.82
2023-01-27T23:49:24.786Z,12.85
2023-01-27T23:51:52.637Z,10.82
2023-01-27T23:54:20.491Z,11.60
2023-01-27T23:56:48.344Z,11.60
2023-01-27T23:59:16.351Z,11.50
